WetterOnline ( https://www.wetteronline.at )

Wetter aktuell Boizenburg

Aktuelles Wetter: Boizenburg (46m)

6-stündlich | Neueste Meldungen
Ortszeit Temperatur Wetter
Di, 10.12. 7:00 1.8° C fast wolkenlos
Di, 10.12. 1:00 4.2° C leicht bewölkt
Mo, 09.12. 19:00 5.5° C wolkig
Mo, 09.12. 13:00 6.9° C Sprühregen
Mo, 09.12. 7:00 5.9° C bewölkt
Mo, 09.12. 1:00 6.2° C Sprühregen
So, 08.12. 19:00 8.4° C bewölkt
So, 08.12. 13:00 9.0° C bedeckt
Ortszeit Temperatur Wetter
Di, 10.12. 12:00 4.7° C wolkenlos
Di, 10.12. 11:30 4.1° C leicht bewölkt
Di, 10.12. 11:20 4.1° C leicht bewölkt
Di, 10.12. 11:10 4.1° C wolkig
Di, 10.12. 11:00 3.8° C leicht bewölkt
Di, 10.12. 10:50 3.8° C leicht bewölkt
Di, 10.12. 10:30 3.1° C wolkenlos
Di, 10.12. 10:00 2.7° C leicht bewölkt
Di, 10.12. 9:30 2.2° C fast wolkenlos
Di, 10.12. 9:00 2.2° C wolkenlos
Di, 10.12. 8:30 1.9° C wolkenlos
Ortszeit Relative Feuchte Sichtweite
Di, 10.12. 7:00 90% 23 km
Di, 10.12. 1:00 80% 35 km
Mo, 09.12. 19:00 88% 55 km
Mo, 09.12. 13:00 80% 29 km
Mo, 09.12. 7:00 82% 40 km
Mo, 09.12. 1:00 91% 18 km
So, 08.12. 19:00 82% 50 km
So, 08.12. 13:00 88% 30 km
Ortszeit Relative Feuchte Sichtweite
Di, 10.12. 12:00 79% 29 km
Di, 10.12. 11:30 83% 26 km
Di, 10.12. 11:20 83% -
Di, 10.12. 11:10 83% -
Di, 10.12. 11:00 85% 27 km
Di, 10.12. 10:50 85% -
Di, 10.12. 10:30 89% 30 km
Di, 10.12. 10:00 90% 30 km
Di, 10.12. 9:30 91% 28 km
Di, 10.12. 9:00 91% 27 km
Di, 10.12. 8:30 92% 24 km
Ortszeit Niederschlagsmenge Niederschlagsart
Di, 10.12. 7:00 0.1 l/m2 in 12 Std. -
Di, 10.12. 1:00 0.1 l/m2 in 6 Std. Regen
Mo, 09.12. 19:00 0.1 l/m2 in 12 Std. Regen
Mo, 09.12. 13:00 0.1 l/m2 in 6 Std. Regen
Mo, 09.12. 7:00 2 l/m2 in 12 Std. Regen
Mo, 09.12. 1:00 0.6 l/m2 in 6 Std. Regen
So, 08.12. 19:00 0.8 l/m2 in 12 Std. Regen
So, 08.12. 13:00 0.5 l/m2 in 6 Std. Regen
Ortszeit Niederschlagsmenge Niederschlagsart
Di, 10.12. 12:00 0.0 l/m2 in 1 Std. -
Di, 10.12. 11:30 0.0 l/m2 in 1 Std. -
Di, 10.12. 11:20 keine Meldung -
Di, 10.12. 11:10 keine Meldung -
Di, 10.12. 11:00 0.0 l/m2 in 1 Std. -
Di, 10.12. 10:50 keine Meldung -
Di, 10.12. 10:30 0.0 l/m2 in 1 Std. -
Di, 10.12. 10:00 0.0 l/m2 in 1 Std. -
Di, 10.12. 9:30 0.0 l/m2 in 1 Std. -
Di, 10.12. 9:00 0.0 l/m2 in 1 Std. -
Di, 10.12. 8:30 0.0 l/m2 in 1 Std. -
Ortszeit Stärke Spitze Richtung
km/h Bft. km/h Grad Sektor
Di, 10.12. 7:00 11 2 25 250° W
Di, 10.12. 1:00 14 3 36 280° W
Mo, 09.12. 19:00 13 3 33 280° W
Mo, 09.12. 13:00 13 3 31 210° SW
Mo, 09.12. 7:00 17 3 72 190° S
Mo, 09.12. 1:00 13 3 61 220° SW
So, 08.12. 19:00 25 4 54 240° SW
So, 08.12. 13:00 25 4 50 210° SW
Ortszeit Stärke Spitze Richtung
km/h Bft. km/h Grad Sektor
Di, 10.12. 12:00 11 2 25 230° SW
Di, 10.12. 11:30 14 3 25 230° SW
Di, 10.12. 11:20 14 3 - 230° SW
Di, 10.12. 11:10 14 3 - 230° SW
Di, 10.12. 11:00 14 3 25 230° SW
Di, 10.12. 10:50 14 3 - 230° SW
Di, 10.12. 10:30 15 3 22 240° SW
Di, 10.12. 10:00 11 2 22 230° SW
Di, 10.12. 9:30 11 2 18 230° SW
Di, 10.12. 9:00 13 3 20 240° SW
Di, 10.12. 8:30 11 2 19 240° SW
Ortszeit Untergrenze Bedeckung Gattung
total tief tief mittel hoch
Di, 10.12. 7:00 1800 m 0/8 0/8 - - -
Di, 10.12. 1:00 810 m 4/8 4/8 - - -
Mo, 09.12. 19:00 2400 m 8/8 2/8 - - -
Mo, 09.12. 13:00 720 m 8/8 8/8 - - -
Mo, 09.12. 7:00 750 m 7/8 7/8 - - -
Mo, 09.12. 1:00 510 m 7/8 7/8 - - -
So, 08.12. 19:00 540 m 7/8 7/8 - - -
So, 08.12. 13:00 420 m 8/8 8/8 - - -
Ortszeit Bedeckungsgrad in Achtel und Wolkenuntergrenze
Di, 10.12. 12:00 keine Wolken
Di, 10.12. 11:30 4(7800m) 6(8700m)
Di, 10.12. 11:20 4(7800m) 6(8700m)
Di, 10.12. 11:10 7(8400m)
Di, 10.12. 11:00 4(8400m) 6(9000m)
Di, 10.12. 10:50 4(8400m) 6(9000m)
Di, 10.12. 10:30 2(9000m)
Di, 10.12. 10:00 3(6300m)
Di, 10.12. 9:30 1(6600m)
Di, 10.12. 9:00 keine Wolken
Di, 10.12. 8:30 keine Wolken
Ortszeit Luftdruck NN (hPa) Tendenz (hPa in 3 Std.)
Di, 10.12. 7:00 1020 + 3,5
Di, 10.12. 1:00 1012 + 4,7
Mo, 09.12. 19:00 1003 + 4,5
Mo, 09.12. 13:00 996 + 0,4
Mo, 09.12. 7:00 994 + 0,2
Mo, 09.12. 1:00 994 - 1,0
So, 08.12. 19:00 995 + 1,0
So, 08.12. 13:00 995 - 2,5
Ortszeit Luftdruck NN (hPa) Tendenz (hPa in 3 Std.)
Di, 10.12. 12:00 1023 + 1,1
Di, 10.12. 11:30 1023 + 1,6
Di, 10.12. 11:20 1023 keine Meldung
Di, 10.12. 11:10 1023 keine Meldung
Di, 10.12. 11:00 1023 + 1,8
Di, 10.12. 10:50 1023 keine Meldung
Di, 10.12. 10:30 1022 + 2,2
Di, 10.12. 10:00 1022 + 2,3
Di, 10.12. 9:30 1022 + 2,8
Di, 10.12. 9:00 1022 + 3,0
Di, 10.12. 8:30 1021 + 3,1
Ortszeit Schneehöhe (cm)
Di, 10.12. 7:00 0
Di, 10.12. 1:00 0
Mo, 09.12. 19:00 0
Mo, 09.12. 13:00 0
Mo, 09.12. 7:00 0
Mo, 09.12. 1:00 0
So, 08.12. 19:00 0
So, 08.12. 13:00 0
Ortszeit Schneehöhe (cm)
Di, 10.12. 12:00 0
Di, 10.12. 11:30 0
Di, 10.12. 11:20 0
Di, 10.12. 11:10 0
Di, 10.12. 11:00 0
Di, 10.12. 10:50 0
Di, 10.12. 10:30 0
Di, 10.12. 10:00 0
Di, 10.12. 9:30 0
Di, 10.12. 9:00 0
Di, 10.12. 8:30 0
Link zu dieser Seite / Seite empfehlen

Das Wetter in ...